sensor_id;sensor_type;location;lat;lon;timestamp;temperature;humidity
21171;DHT22;10743;52.160;20.910;2023-01-04T00:01:20;22.60;29.60
21171;DHT22;10743;52.160;20.910;2023-01-04T00:03:48;22.60;29.50
21171;DHT22;10743;52.160;20.910;2023-01-04T00:06:16;22.60;29.50
21171;DHT22;10743;52.160;20.910;2023-01-04T00:08:44;22.60;29.50
21171;DHT22;10743;52.160;20.910;2023-01-04T00:11:13;22.50;29.90
21171;DHT22;10743;52.160;20.910;2023-01-04T00:13:44;22.50;29.30
21171;DHT22;10743;52.160;20.910;2023-01-04T00:16:20;22.50;29.40
21171;DHT22;10743;52.160;20.910;2023-01-04T00:18:49;22.50;29.40
21171;DHT22;10743;52.160;20.910;2023-01-04T00:21:22;22.40;29.00
21171;DHT22;10743;52.160;20.910;2023-01-04T00:23:53;22.40;29.40
21171;DHT22;10743;52.160;20.910;2023-01-04T00:26:23;22.40;29.50
21171;DHT22;10743;52.160;20.910;2023-01-04T00:29:01;22.40;29.50
21171;DHT22;10743;52.160;20.910;2023-01-04T00:31:34;22.30;29.50
21171;DHT22;10743;52.160;20.910;2023-01-04T00:34:03;22.30;29.50
21171;DHT22;10743;52.160;20.910;2023-01-04T00:36:32;22.30;30.00
21171;DHT22;10743;52.160;20.910;2023-01-04T00:39:00;22.30;29.60
21171;DHT22;10743;52.160;20.910;2023-01-04T00:41:40;22.20;29.50
21171;DHT22;10743;52.160;20.910;2023-01-04T00:44:25;22.20;29.50
21171;DHT22;10743;52.160;20.910;2023-01-04T00:46:52;22.20;29.60
21171;DHT22;10743;52.160;20.910;2023-01-04T00:49:19;22.10;29.50
21171;DHT22;10743;52.160;20.910;2023-01-04T00:51:47;22.10;29.60
21171;DHT22;10743;52.160;20.910;2023-01-04T00:54:14;22.00;29.60
21171;DHT22;10743;52.160;20.910;2023-01-04T00:56:42;22.00;29.70
21171;DHT22;10743;52.160;20.910;2023-01-04T00:59:12;22.00;29.70
21171;DHT22;10743;52.160;20.910;2023-01-04T01:01:40;22.00;29.70
21171;DHT22;10743;52.160;20.910;2023-01-04T01:04:11;22.00;29.70
21171;DHT22;10743;52.160;20.910;2023-01-04T01:06:40;21.90;29.70
21171;DHT22;10743;52.160;20.910;2023-01-04T01:09:08;21.90;29.70
21171;DHT22;10743;52.160;20.910;2023-01-04T01:11:35;21.90;29.80
21171;DHT22;10743;52.160;20.910;2023-01-04T01:14:04;21.90;29.80
21171;DHT22;10743;52.160;20.910;2023-01-04T01:16:33;21.90;29.80
21171;DHT22;10743;52.160;20.910;2023-01-04T01:19:20;21.90;29.80
21171;DHT22;10743;52.160;20.910;2023-01-04T01:21:47;21.80;29.80
21171;DHT22;10743;52.160;20.910;2023-01-04T01:24:17;21.80;29.90
21171;DHT22;10743;52.160;20.910;2023-01-04T01:26:45;21.80;29.80
21171;DHT22;10743;52.160;20.910;2023-01-04T01:29:12;21.80;29.90
21171;DHT22;10743;52.160;20.910;2023-01-04T01:31:40;21.80;29.90
21171;DHT22;10743;52.160;20.910;2023-01-04T01:34:08;21.70;29.90
21171;DHT22;10743;52.160;20.910;2023-01-04T01:36:35;21.70;30.00
21171;DHT22;10743;52.160;20.910;2023-01-04T01:39:04;21.70;30.00
21171;DHT22;10743;52.160;20.910;2023-01-04T01:41:33;21.60;30.00
21171;DHT22;10743;52.160;20.910;2023-01-04T01:49:50;21.60;30.00
21171;DHT22;10743;52.160;20.910;2023-01-04T01:52:28;21.50;30.00
21171;DHT22;10743;52.160;20.910;2023-01-04T01:55:00;21.50;30.10
21171;DHT22;10743;52.160;20.910;2023-01-04T01:57:31;21.50;30.00
21171;DHT22;10743;52.160;20.910;2023-01-04T02:00:06;21.50;30.10
21171;DHT22;10743;52.160;20.910;2023-01-04T02:05:51;21.50;30.10
21171;DHT22;10743;52.160;20.910;2023-01-04T02:08:21;21.40;30.00
21171;DHT22;10743;52.160;20.910;2023-01-04T02:10:49;21.40;30.00
21171;DHT22;10743;52.160;20.910;2023-01-04T02:13:22;21.40;30.00
21171;DHT22;10743;52.160;20.910;2023-01-04T02:16:09;21.30;30.00
21171;DHT22;10743;52.160;20.910;2023-01-04T02:18:54;21.30;30.00
21171;DHT22;10743;52.160;20.910;2023-01-04T02:24:23;21.20;30.10
21171;DHT22;10743;52.160;20.910;2023-01-04T02:36:02;21.10;30.00
21171;DHT22;10743;52.160;20.910;2023-01-04T02:39:12;21.10;30.10
21171;DHT22;10743;52.160;20.910;2023-01-04T02:45:02;20.90;30.10
21171;DHT22;10743;52.160;20.910;2023-01-04T02:47:35;20.90;30.30
21171;DHT22;10743;52.160;20.910;2023-01-04T02:50:25;20.90;30.50
21171;DHT22;10743;52.160;20.910;2023-01-04T02:53:16;20.80;30.50
21171;DHT22;10743;52.160;20.910;2023-01-04T03:10:53;20.60;30.60
21171;DHT22;10743;52.160;20.910;2023-01-04T03:13:26;20.50;30.70
21171;DHT22;10743;52.160;20.910;2023-01-04T03:16:07;20.50;30.60
21171;DHT22;10743;52.160;20.910;2023-01-04T03:18:48;20.50;30.50
21171;DHT22;10743;52.160;20.910;2023-01-04T03:21:18;20.40;30.40
21171;DHT22;10743;52.160;20.910;2023-01-04T03:23:48;20.40;29.80
21171;DHT22;10743;52.160;20.910;2023-01-04T03:26:42;20.30;30.20
21171;DHT22;10743;52.160;20.910;2023-01-04T03:29:38;20.40;30.30
21171;DHT22;10743;52.160;20.910;2023-01-04T03:32:56;20.30;30.30
21171;DHT22;10743;52.160;20.910;2023-01-04T03:35:54;20.30;30.40
21171;DHT22;10743;52.160;20.910;2023-01-04T03:38:38;20.30;30.00
21171;DHT22;10743;52.160;20.910;2023-01-04T03:42:03;20.20;30.30
21171;DHT22;10743;52.160;20.910;2023-01-04T03:44:59;20.20;30.40
21171;DHT22;10743;52.160;20.910;2023-01-04T03:51:24;20.10;30.50
21171;DHT22;10743;52.160;20.910;2023-01-04T03:54:10;20.10;30.60
21171;DHT22;10743;52.160;20.910;2023-01-04T03:56:42;20.00;30.00
21171;DHT22;10743;52.160;20.910;2023-01-04T03:59:11;20.00;30.60
21171;DHT22;10743;52.160;20.910;2023-01-04T04:01:41;20.00;30.70
21171;DHT22;10743;52.160;20.910;2023-01-04T04:04:10;19.90;30.10
21171;DHT22;10743;52.160;20.910;2023-01-04T04:06:55;19.90;30.70
21171;DHT22;10743;52.160;20.910;2023-01-04T04:09:41;19.90;30.90
21171;DHT22;10743;52.160;20.910;2023-01-04T04:14:35;19.90;30.30
21171;DHT22;10743;52.160;20.910;2023-01-04T04:17:02;19.90;31.00
21171;DHT22;10743;52.160;20.910;2023-01-04T04:21:57;19.80;30.10
21171;DHT22;10743;52.160;20.910;2023-01-04T04:24:25;19.80;30.70
21171;DHT22;10743;52.160;20.910;2023-01-04T04:26:53;19.70;30.20
21171;DHT22;10743;52.160;20.910;2023-01-04T04:29:22;19.70;30.80
21171;DHT22;10743;52.160;20.910;2023-01-04T04:31:50;19.80;30.80
21171;DHT22;10743;52.160;20.910;2023-01-04T04:34:17;19.70;30.70
21171;DHT22;10743;52.160;20.910;2023-01-04T04:36:45;19.70;30.80
21171;DHT22;10743;52.160;20.910;2023-01-04T04:44:08;19.70;30.20
21171;DHT22;10743;52.160;20.910;2023-01-04T04:46:47;19.60;30.00
21171;DHT22;10743;52.160;20.910;2023-01-04T04:49:15;19.60;30.20
21171;DHT22;10743;52.160;20.910;2023-01-04T04:51:44;19.60;30.80
21171;DHT22;10743;52.160;20.910;2023-01-04T04:54:16;19.60;30.80
21171;DHT22;10743;52.160;20.910;2023-01-04T04:56:45;19.60;30.70
21171;DHT22;10743;52.160;20.910;2023-01-04T04:59:14;19.50;30.80
21171;DHT22;10743;52.160;20.910;2023-01-04T05:01:41;19.50;30.60
21171;DHT22;10743;52.160;20.910;2023-01-04T05:04:08;19.50;30.50
21171;DHT22;10743;52.160;20.910;2023-01-04T05:06:43;19.50;30.50
21171;DHT22;10743;52.160;20.910;2023-01-04T05:09:14;19.50;30.60
21171;DHT22;10743;52.160;20.910;2023-01-04T05:11:41;19.40;30.50
21171;DHT22;10743;52.160;20.910;2023-01-04T05:14:27;19.40;30.50
21171;DHT22;10743;52.160;20.910;2023-01-04T05:16:54;19.40;30.50
21171;DHT22;10743;52.160;20.910;2023-01-04T05:19:22;19.40;30.60
21171;DHT22;10743;52.160;20.910;2023-01-04T05:21:49;19.40;30.50
21171;DHT22;10743;52.160;20.910;2023-01-04T05:24:16;19.40;30.50
21171;DHT22;10743;52.160;20.910;2023-01-04T05:29:10;19.30;30.00
21171;DHT22;10743;52.160;20.910;2023-01-04T05:31:57;19.30;30.40
21171;DHT22;10743;52.160;20.910;2023-01-04T05:34:25;19.30;30.40
21171;DHT22;10743;52.160;20.910;2023-01-04T05:36:52;19.30;30.40
21171;DHT22;10743;52.160;20.910;2023-01-04T05:39:19;19.30;30.40
21171;DHT22;10743;52.160;20.910;2023-01-04T05:41:46;19.30;30.70
21171;DHT22;10743;52.160;20.910;2023-01-04T05:44:31;19.30;30.70
21171;DHT22;10743;52.160;20.910;2023-01-04T05:46:58;19.30;30.60
21171;DHT22;10743;52.160;20.910;2023-01-04T05:51:52;19.20;30.00
21171;DHT22;10743;52.160;20.910;2023-01-04T05:54:20;19.20;30.70
21171;DHT22;10743;52.160;20.910;2023-01-04T05:59:14;19.20;30.10
21171;DHT22;10743;52.160;20.910;2023-01-04T06:01:42;19.20;30.70
21171;DHT22;10743;52.160;20.910;2023-01-04T06:04:09;19.20;30.60
21171;DHT22;10743;52.160;20.910;2023-01-04T06:06:36;19.10;30.70
21171;DHT22;10743;52.160;20.910;2023-01-04T06:09:03;19.10;30.70
21171;DHT22;10743;52.160;20.910;2023-01-04T06:13:58;19.10;30.20
21171;DHT22;10743;52.160;20.910;2023-01-04T06:16:25;19.10;30.80
21171;DHT22;10743;52.160;20.910;2023-01-04T06:18:52;19.10;30.80
21171;DHT22;10743;52.160;20.910;2023-01-04T06:21:19;19.10;30.70
21171;DHT22;10743;52.160;20.910;2023-01-04T06:23:46;19.10;30.70
21171;DHT22;10743;52.160;20.910;2023-01-04T06:26:13;19.10;30.50
21171;DHT22;10743;52.160;20.910;2023-01-04T06:28:40;19.00;30.30
21171;DHT22;10743;52.160;20.910;2023-01-04T06:31:09;19.00;30.30
21171;DHT22;10743;52.160;20.910;2023-01-04T06:33:37;19.00;30.20
21171;DHT22;10743;52.160;20.910;2023-01-04T06:36:05;19.00;30.30
21171;DHT22;10743;52.160;20.910;2023-01-04T06:38:45;19.00;30.50
21171;DHT22;10743;52.160;20.910;2023-01-04T06:41:12;19.00;30.50
21171;DHT22;10743;52.160;20.910;2023-01-04T06:43:39;19.00;30.60
21171;DHT22;10743;52.160;20.910;2023-01-04T06:46:06;19.00;30.60
21171;DHT22;10743;52.160;20.910;2023-01-04T06:48:33;19.00;30.70
21171;DHT22;10743;52.160;20.910;2023-01-04T06:51:00;19.00;30.70
21171;DHT22;10743;52.160;20.910;2023-01-04T06:53:28;19.00;30.70
21171;DHT22;10743;52.160;20.910;2023-01-04T06:55:55;19.00;30.70
21171;DHT22;10743;52.160;20.910;2023-01-04T06:58:22;19.00;30.90
21171;DHT22;10743;52.160;20.910;2023-01-04T07:00:53;19.00;30.90
21171;DHT22;10743;52.160;20.910;2023-01-04T07:03:21;18.90;30.80
21171;DHT22;10743;52.160;20.910;2023-01-04T07:05:49;18.90;30.80
21171;DHT22;10743;52.160;20.910;2023-01-04T07:08:16;19.00;31.00
21171;DHT22;10743;52.160;20.910;2023-01-04T07:13:11;19.00;30.30
21171;DHT22;10743;52.160;20.910;2023-01-04T07:15:38;18.90;31.10
21171;DHT22;10743;52.160;20.910;2023-01-04T07:18:10;19.00;31.10
21171;DHT22;10743;52.160;20.910;2023-01-04T07:20:37;18.90;31.10
21171;DHT22;10743;52.160;20.910;2023-01-04T07:23:05;19.00;31.20
21171;DHT22;10743;52.160;20.910;2023-01-04T07:25:32;18.90;31.10
21171;DHT22;10743;52.160;20.910;2023-01-04T07:28:00;19.00;31.20
21171;DHT22;10743;52.160;20.910;2023-01-04T07:30:28;19.00;31.10
21171;DHT22;10743;52.160;20.910;2023-01-04T07:32:55;19.00;31.20
21171;DHT22;10743;52.160;20.910;2023-01-04T07:35:23;19.00;31.20
21171;DHT22;10743;52.160;20.910;2023-01-04T07:37:50;19.00;31.30
21171;DHT22;10743;52.160;20.910;2023-01-04T07:40:24;19.00;31.30
21171;DHT22;10743;52.160;20.910;2023-01-04T07:42:58;19.00;31.50
21171;DHT22;10743;52.160;20.910;2023-01-04T07:45:25;19.00;31.50
21171;DHT22;10743;52.160;20.910;2023-01-04T07:47:53;19.00;31.70
21171;DHT22;10743;52.160;20.910;2023-01-04T07:50:20;19.00;32.00
21171;DHT22;10743;52.160;20.910;2023-01-04T07:52:47;19.00;31.90
21171;DHT22;10743;52.160;20.910;2023-01-04T07:55:14;19.10;32.20
21171;DHT22;10743;52.160;20.910;2023-01-04T07:57:41;19.10;32.50
21171;DHT22;10743;52.160;20.910;2023-01-04T08:00:09;19.10;32.70
21171;DHT22;10743;52.160;20.910;2023-01-04T08:02:39;19.10;32.90
21171;DHT22;10743;52.160;20.910;2023-01-04T08:05:07;19.20;33.20
21171;DHT22;10743;52.160;20.910;2023-01-04T08:07:34;19.20;33.30
21171;DHT22;10743;52.160;20.910;2023-01-04T08:10:01;19.20;33.40
21171;DHT22;10743;52.160;20.910;2023-01-04T08:12:28;19.20;33.60
21171;DHT22;10743;52.160;20.910;2023-01-04T08:29:40;19.40;33.60
21171;DHT22;10743;52.160;20.910;2023-01-04T08:32:07;19.40;34.20
21171;DHT22;10743;52.160;20.910;2023-01-04T08:34:35;19.50;35.30
21171;DHT22;10743;52.160;20.910;2023-01-04T08:37:02;19.50;34.40
21171;DHT22;10743;52.160;20.910;2023-01-04T08:39:29;19.40;34.20
21171;DHT22;10743;52.160;20.910;2023-01-04T08:41:59;19.50;34.20
21171;DHT22;10743;52.160;20.910;2023-01-04T08:52:08;19.70;34.00
21171;DHT22;10743;52.160;20.910;2023-01-04T08:54:37;19.80;34.70
21171;DHT22;10743;52.160;20.910;2023-01-04T08:59:31;19.80;34.20
21171;DHT22;10743;52.160;20.910;2023-01-04T09:01:58;19.90;34.90
21171;DHT22;10743;52.160;20.910;2023-01-04T09:06:59;19.90;34.10
21171;DHT22;10743;52.160;20.910;2023-01-04T09:09:26;20.00;34.90
21171;DHT22;10743;52.160;20.910;2023-01-04T09:16:50;20.10;34.10
21171;DHT22;10743;52.160;20.910;2023-01-04T09:21:48;20.20;34.10
21171;DHT22;10743;52.160;20.910;2023-01-04T09:24:15;20.20;34.80
21171;DHT22;10743;52.160;20.910;2023-01-04T09:26:42;20.30;34.90
21171;DHT22;10743;52.160;20.910;2023-01-04T09:29:10;20.40;34.80
21171;DHT22;10743;52.160;20.910;2023-01-04T09:31:37;20.50;34.70
21171;DHT22;10743;52.160;20.910;2023-01-04T09:34:04;20.50;34.70
21171;DHT22;10743;52.160;20.910;2023-01-04T09:36:44;20.70;34.50
21171;DHT22;10743;52.160;20.910;2023-01-04T09:39:13;20.80;33.70
21171;DHT22;10743;52.160;20.910;2023-01-04T09:42:01;20.70;34.10
21171;DHT22;10743;52.160;20.910;2023-01-04T09:44:45;20.80;33.90
21171;DHT22;10743;52.160;20.910;2023-01-04T09:47:52;20.80;33.60
21171;DHT22;10743;52.160;20.910;2023-01-04T09:50:34;20.90;33.70
21171;DHT22;10743;52.160;20.910;2023-01-04T09:56:33;21.10;33.50
21171;DHT22;10743;52.160;20.910;2023-01-04T09:59:06;21.10;33.30
21171;DHT22;10743;52.160;20.910;2023-01-04T10:01:43;21.20;33.40
21171;DHT22;10743;52.160;20.910;2023-01-04T10:04:23;21.30;33.20
21171;DHT22;10743;52.160;20.910;2023-01-04T10:06:53;21.30;33.00
21171;DHT22;10743;52.160;20.910;2023-01-04T10:09:28;21.40;32.90
21171;DHT22;10743;52.160;20.910;2023-01-04T10:33:17;21.70;33.00
21171;DHT22;10743;52.160;20.910;2023-01-04T10:36:20;21.80;32.70
21171;DHT22;10743;52.160;20.910;2023-01-04T10:39:05;21.80;32.60
21171;DHT22;10743;52.160;20.910;2023-01-04T10:41:45;21.90;32.60
21171;DHT22;10743;52.160;20.910;2023-01-04T10:47:31;22.00;32.70
21171;DHT22;10743;52.160;20.910;2023-01-04T10:50:29;22.00;32.80
21171;DHT22;10743;52.160;20.910;2023-01-04T10:53:03;22.10;32.70
21171;DHT22;10743;52.160;20.910;2023-01-04T10:59:21;22.10;32.50
21171;DHT22;10743;52.160;20.910;2023-01-04T11:01:57;22.20;32.60
21171;DHT22;10743;52.160;20.910;2023-01-04T11:04:37;22.20;32.60
21171;DHT22;10743;52.160;20.910;2023-01-04T11:07:14;22.20;32.70
21171;DHT22;10743;52.160;20.910;2023-01-04T11:09:55;22.20;32.50
21171;DHT22;10743;52.160;20.910;2023-01-04T11:12:25;22.20;32.50
21171;DHT22;10743;52.160;20.910;2023-01-04T11:14:52;22.20;32.50
21171;DHT22;10743;52.160;20.910;2023-01-04T11:17:20;22.20;32.70
21171;DHT22;10743;52.160;20.910;2023-01-04T11:19:49;22.20;32.70
21171;DHT22;10743;52.160;20.910;2023-01-04T11:22:23;22.20;32.60
21171;DHT22;10743;52.160;20.910;2023-01-04T11:25:02;22.20;32.70
21171;DHT22;10743;52.160;20.910;2023-01-04T11:30:31;22.20;32.90
21171;DHT22;10743;52.160;20.910;2023-01-04T11:33:15;22.20;32.80
21171;DHT22;10743;52.160;20.910;2023-01-04T11:35:46;22.20;32.80
21171;DHT22;10743;52.160;20.910;2023-01-04T11:38:28;22.20;32.90
21171;DHT22;10743;52.160;20.910;2023-01-04T11:41:07;22.30;32.90
21171;DHT22;10743;52.160;20.910;2023-01-04T11:43:59;22.30;32.20
21171;DHT22;10743;52.160;20.910;2023-01-04T11:46:30;22.30;32.80
21171;DHT22;10743;52.160;20.910;2023-01-04T11:48:59;22.30;32.70
21171;DHT22;10743;52.160;20.910;2023-01-04T11:57:02;22.40;32.70
21171;DHT22;10743;52.160;20.910;2023-01-04T11:59:38;22.30;32.60
21171;DHT22;10743;52.160;20.910;2023-01-04T12:02:21;22.30;32.70
21171;DHT22;10743;52.160;20.910;2023-01-04T12:05:20;22.40;32.80
21171;DHT22;10743;52.160;20.910;2023-01-04T12:07:56;22.30;32.80
21171;DHT22;10743;52.160;20.910;2023-01-04T12:10:25;22.30;32.80
21171;DHT22;10743;52.160;20.910;2023-01-04T12:12:55;22.30;32.80
21171;DHT22;10743;52.160;20.910;2023-01-04T12:15:52;22.30;32.90
21171;DHT22;10743;52.160;20.910;2023-01-04T12:18:48;22.30;33.70
21171;DHT22;10743;52.160;20.910;2023-01-04T12:21:23;22.40;32.90
21171;DHT22;10743;52.160;20.910;2023-01-04T12:23:53;22.40;32.90
21171;DHT22;10743;52.160;20.910;2023-01-04T12:26:21;22.40;33.00
21171;DHT22;10743;52.160;20.910;2023-01-04T12:31:51;22.50;32.80
21171;DHT22;10743;52.160;20.910;2023-01-04T12:36:53;22.50;32.90
21171;DHT22;10743;52.160;20.910;2023-01-04T12:39:41;22.50;32.80
21171;DHT22;10743;52.160;20.910;2023-01-04T12:42:19;22.50;32.90
21171;DHT22;10743;52.160;20.910;2023-01-04T12:50:07;22.50;32.80
21171;DHT22;10743;52.160;20.910;2023-01-04T12:52:54;22.50;33.00
21171;DHT22;10743;52.160;20.910;2023-01-04T13:01:34;22.60;33.00
21171;DHT22;10743;52.160;20.910;2023-01-04T13:04:26;22.50;33.00
21171;DHT22;10743;52.160;20.910;2023-01-04T13:06:55;22.50;33.10
21171;DHT22;10743;52.160;20.910;2023-01-04T13:09:41;22.50;33.20
21171;DHT22;10743;52.160;20.910;2023-01-04T13:15:48;22.60;33.20
21171;DHT22;10743;52.160;20.910;2023-01-04T13:18:55;22.50;33.20
21171;DHT22;10743;52.160;20.910;2023-01-04T13:21:43;22.50;33.20
21171;DHT22;10743;52.160;20.910;2023-01-04T13:24:21;22.50;33.20
21171;DHT22;10743;52.160;20.910;2023-01-04T13:27:15;22.60;33.20
21171;DHT22;10743;52.160;20.910;2023-01-04T13:29:45;22.60;33.10
21171;DHT22;10743;52.160;20.910;2023-01-04T13:32:24;22.60;33.10
21171;DHT22;10743;52.160;20.910;2023-01-04T13:35:00;22.60;33.10
21171;DHT22;10743;52.160;20.910;2023-01-04T13:37:46;22.60;33.20
21171;DHT22;10743;52.160;20.910;2023-01-04T13:40:29;22.60;33.20
21171;DHT22;10743;52.160;20.910;2023-01-04T13:43:39;22.60;33.20
21171;DHT22;10743;52.160;20.910;2023-01-04T13:46:22;22.60;33.00
21171;DHT22;10743;52.160;20.910;2023-01-04T13:48:52;22.70;33.90
21171;DHT22;10743;52.160;20.910;2023-01-04T13:51:26;22.70;33.10
21171;DHT22;10743;52.160;20.910;2023-01-04T13:54:05;22.70;33.00
21171;DHT22;10743;52.160;20.910;2023-01-04T13:56:42;22.80;32.80
21171;DHT22;10743;52.160;20.910;2023-01-04T13:59:14;22.80;32.80
21171;DHT22;10743;52.160;20.910;2023-01-04T14:01:44;22.80;32.80
21171;DHT22;10743;52.160;20.910;2023-01-04T14:04:24;22.80;32.70
21171;DHT22;10743;52.160;20.910;2023-01-04T14:06:57;22.90;32.80
21171;DHT22;10743;52.160;20.910;2023-01-04T14:09:29;22.90;32.70
21171;DHT22;10743;52.160;20.910;2023-01-04T14:12:16;22.90;32.50
21171;DHT22;10743;52.160;20.910;2023-01-04T14:17:45;23.00;33.00
21171;DHT22;10743;52.160;20.910;2023-01-04T14:33:41;23.00;31.90
21171;DHT22;10743;52.160;20.910;2023-01-04T14:36:25;23.00;32.00
21171;DHT22;10743;52.160;20.910;2023-01-04T14:38:57;23.00;32.00
21171;DHT22;10743;52.160;20.910;2023-01-04T14:41:51;23.00;32.00
21171;DHT22;10743;52.160;20.910;2023-01-04T14:44:25;23.00;32.00
21171;DHT22;10743;52.160;20.910;2023-01-04T14:46:56;23.00;32.10
21171;DHT22;10743;52.160;20.910;2023-01-04T14:49:25;23.00;32.40
21171;DHT22;10743;52.160;20.910;2023-01-04T14:51:58;23.00;32.60
21171;DHT22;10743;52.160;20.910;2023-01-04T14:54:28;23.00;33.00
21171;DHT22;10743;52.160;20.910;2023-01-04T14:56:56;22.90;33.40
21171;DHT22;10743;52.160;20.910;2023-01-04T14:59:25;22.80;33.60
21171;DHT22;10743;52.160;20.910;2023-01-04T15:01:53;22.70;33.80
21171;DHT22;10743;52.160;20.910;2023-01-04T15:04:22;22.80;33.70
21171;DHT22;10743;52.160;20.910;2023-01-04T15:06:55;22.70;33.20
21171;DHT22;10743;52.160;20.910;2023-01-04T15:09:24;22.70;33.80
21171;DHT22;10743;52.160;20.910;2023-01-04T15:11:52;22.70;33.90
21171;DHT22;10743;52.160;20.910;2023-01-04T15:14:19;22.60;33.90
21171;DHT22;10743;52.160;20.910;2023-01-04T15:16:47;22.60;33.90
21171;DHT22;10743;52.160;20.910;2023-01-04T15:19:15;22.70;34.00
21171;DHT22;10743;52.160;20.910;2023-01-04T15:21:42;22.70;34.10
21171;DHT22;10743;52.160;20.910;2023-01-04T15:24:09;22.60;34.10
21171;DHT22;10743;52.160;20.910;2023-01-04T15:26:38;22.70;34.10
21171;DHT22;10743;52.160;20.910;2023-01-04T15:29:05;22.70;34.10
21171;DHT22;10743;52.160;20.910;2023-01-04T15:31:34;22.80;34.20
21171;DHT22;10743;52.160;20.910;2023-01-04T15:34:06;22.80;34.00
21171;DHT22;10743;52.160;20.910;2023-01-04T15:36:36;22.80;34.10
21171;DHT22;10743;52.160;20.910;2023-01-04T15:39:07;22.80;34.10
21171;DHT22;10743;52.160;20.910;2023-01-04T15:41:36;22.80;34.00
21171;DHT22;10743;52.160;20.910;2023-01-04T15:44:22;22.70;33.90
21171;DHT22;10743;52.160;20.910;2023-01-04T15:46:49;22.70;34.00
21171;DHT22;10743;52.160;20.910;2023-01-04T15:49:18;22.70;33.90
21171;DHT22;10743;52.160;20.910;2023-01-04T15:51:46;22.70;34.10
21171;DHT22;10743;52.160;20.910;2023-01-04T15:54:13;22.60;33.90
21171;DHT22;10743;52.160;20.910;2023-01-04T15:56:40;22.50;34.10
21171;DHT22;10743;52.160;20.910;2023-01-04T15:59:07;22.50;34.10
21171;DHT22;10743;52.160;20.910;2023-01-04T16:01:34;22.50;34.30
21171;DHT22;10743;52.160;20.910;2023-01-04T16:04:04;22.40;34.70
21171;DHT22;10743;52.160;20.910;2023-01-04T16:06:32;22.50;34.60
21171;DHT22;10743;52.160;20.910;2023-01-04T16:08:59;22.40;34.60
21171;DHT22;10743;52.160;20.910;2023-01-04T16:11:27;22.30;34.90
21171;DHT22;10743;52.160;20.910;2023-01-04T16:13:55;22.30;35.00
21171;DHT22;10743;52.160;20.910;2023-01-04T16:16:24;22.30;34.90
21171;DHT22;10743;52.160;20.910;2023-01-04T16:18:55;22.30;35.00
21171;DHT22;10743;52.160;20.910;2023-01-04T16:21:25;22.30;35.00
21171;DHT22;10743;52.160;20.910;2023-01-04T16:23:57;22.30;34.90
21171;DHT22;10743;52.160;20.910;2023-01-04T16:26:38;22.30;35.10
21171;DHT22;10743;52.160;20.910;2023-01-04T16:29:06;22.20;35.30
21171;DHT22;10743;52.160;20.910;2023-01-04T16:31:34;22.30;35.50
21171;DHT22;10743;52.160;20.910;2023-01-04T16:34:03;22.30;35.70
21171;DHT22;10743;52.160;20.910;2023-01-04T16:36:30;22.30;35.70
21171;DHT22;10743;52.160;20.910;2023-01-04T16:38:57;22.40;35.80
21171;DHT22;10743;52.160;20.910;2023-01-04T16:41:25;22.40;35.90
21171;DHT22;10743;52.160;20.910;2023-01-04T16:43:53;22.30;36.20
21171;DHT22;10743;52.160;20.910;2023-01-04T16:46:33;22.30;36.40
21171;DHT22;10743;52.160;20.910;2023-01-04T16:49:07;22.30;36.40
21171;DHT22;10743;52.160;20.910;2023-01-04T16:51:39;22.30;36.30
21171;DHT22;10743;52.160;20.910;2023-01-04T16:54:10;22.40;36.50
21171;DHT22;10743;52.160;20.910;2023-01-04T16:56:39;22.30;36.60
21171;DHT22;10743;52.160;20.910;2023-01-04T16:59:10;22.30;36.60
21171;DHT22;10743;52.160;20.910;2023-01-04T17:01:40;22.30;36.60
21171;DHT22;10743;52.160;20.910;2023-01-04T17:04:17;22.30;36.70
21171;DHT22;10743;52.160;20.910;2023-01-04T17:06:45;22.70;36.70
21171;DHT22;10743;52.160;20.910;2023-01-04T17:09:17;22.30;36.80
21171;DHT22;10743;52.160;20.910;2023-01-04T17:11:46;22.30;37.00
21171;DHT22;10743;52.160;20.910;2023-01-04T17:14:42;22.30;37.10
21171;DHT22;10743;52.160;20.910;2023-01-04T17:17:10;22.30;37.20
21171;DHT22;10743;52.160;20.910;2023-01-04T17:19:37;22.40;37.30
21171;DHT22;10743;52.160;20.910;2023-01-04T17:22:04;22.30;37.40
21171;DHT22;10743;52.160;20.910;2023-01-04T17:24:31;22.40;37.40
21171;DHT22;10743;52.160;20.910;2023-01-04T17:26:58;22.40;37.50
21171;DHT22;10743;52.160;20.910;2023-01-04T17:29:25;22.40;37.40
21171;DHT22;10743;52.160;20.910;2023-01-04T17:31:52;22.40;37.40
21171;DHT22;10743;52.160;20.910;2023-01-04T17:34:19;22.40;37.40
21171;DHT22;10743;52.160;20.910;2023-01-04T17:36:49;22.40;37.50
21171;DHT22;10743;52.160;20.910;2023-01-04T17:39:16;22.30;37.60
21171;DHT22;10743;52.160;20.910;2023-01-04T17:41:46;22.30;37.70
21171;DHT22;10743;52.160;20.910;2023-01-04T17:44:13;22.40;37.70
21171;DHT22;10743;52.160;20.910;2023-01-04T17:46:40;22.30;37.70
21171;DHT22;10743;52.160;20.910;2023-01-04T17:49:09;22.30;38.00
21171;DHT22;10743;52.160;20.910;2023-01-04T17:51:57;22.40;37.80
21171;DHT22;10743;52.160;20.910;2023-01-04T17:54:24;22.40;37.90
21171;DHT22;10743;52.160;20.910;2023-01-04T17:56:52;22.40;37.90
21171;DHT22;10743;52.160;20.910;2023-01-04T17:59:20;22.40;37.80
21171;DHT22;10743;52.160;20.910;2023-01-04T18:04:14;22.40;37.30
21171;DHT22;10743;52.160;20.910;2023-01-04T18:06:42;22.50;37.90
21171;DHT22;10743;52.160;20.910;2023-01-04T18:09:10;22.50;37.70
21171;DHT22;10743;52.160;20.910;2023-01-04T18:14:10;22.60;37.30
21171;DHT22;10743;52.160;20.910;2023-01-04T18:19:28;22.50;37.30
21171;DHT22;10743;52.160;20.910;2023-01-04T18:21:56;22.50;38.10
21171;DHT22;10743;52.160;20.910;2023-01-04T18:24:24;22.50;38.20
21171;DHT22;10743;52.160;20.910;2023-01-04T18:27:10;22.50;38.20
21171;DHT22;10743;52.160;20.910;2023-01-04T18:32:16;22.40;37.80
21171;DHT22;10743;52.160;20.910;2023-01-04T18:39:39;22.50;38.00
21171;DHT22;10743;52.160;20.910;2023-01-04T18:42:07;22.60;38.50
21171;DHT22;10743;52.160;20.910;2023-01-04T18:44:34;22.60;38.50
21171;DHT22;10743;52.160;20.910;2023-01-04T18:47:04;22.60;38.50
21171;DHT22;10743;52.160;20.910;2023-01-04T18:49:31;22.60;38.70
21171;DHT22;10743;52.160;20.910;2023-01-04T18:51:58;22.60;39.40
21171;DHT22;10743;52.160;20.910;2023-01-04T18:54:25;22.70;38.80
21171;DHT22;10743;52.160;20.910;2023-01-04T18:56:52;22.70;38.80
21171;DHT22;10743;52.160;20.910;2023-01-04T18:59:30;22.70;38.80
21171;DHT22;10743;52.160;20.910;2023-01-04T19:01:58;22.70;38.60